createdAt,value
2022-08-05T00:01:20.309Z,4.43
2022-08-05T00:03:47.153Z,5.50
2022-08-05T00:06:27.813Z,5.80
2022-08-05T00:09:00.505Z,5.27
2022-08-05T00:11:30.249Z,6.30
2022-08-05T00:14:02.160Z,4.70
2022-08-05T00:16:35.995Z,5.03
2022-08-05T00:19:03.772Z,5.20
2022-08-05T00:21:30.761Z,5.47
2022-08-05T00:24:10.242Z,5.70
2022-08-05T00:26:37.950Z,6.97
2022-08-05T00:29:07.184Z,6.00
2022-08-05T00:31:54.355Z,5.70
2022-08-05T00:34:55.707Z,6.10
2022-08-05T00:37:11.701Z,6.33
2022-08-05T00:39:44.422Z,6.47
2022-08-05T00:42:32.720Z,7.00
2022-08-05T00:44:59.927Z,5.83
2022-08-05T00:47:52.884Z,7.50
2022-08-05T00:50:13.675Z,7.00
2022-08-05T00:52:41.898Z,8.67
2022-08-05T00:55:12.391Z,9.03
2022-08-05T00:57:58.032Z,9.10
2022-08-05T01:00:26.903Z,9.47
2022-08-05T01:02:53.958Z,7.50
2022-08-05T01:05:20.648Z,8.43
2022-08-05T01:08:29.769Z,7.80
2022-08-05T01:10:51.560Z,7.83
2022-08-05T01:13:58.846Z,9.40
2022-08-05T01:16:26.184Z,8.83
2022-08-05T01:18:58.146Z,10.97
2022-08-05T01:21:52.827Z,9.93
2022-08-05T01:24:32.469Z,11.00
2022-08-05T01:27:17.838Z,9.30
2022-08-05T01:29:48.901Z,11.17
2022-08-05T01:32:18.604Z,12.20
2022-08-05T01:34:51.007Z,10.40
2022-08-05T01:37:45.343Z,10.90
2022-08-05T01:40:18.008Z,11.17
2022-08-05T01:43:04.085Z,12.00
2022-08-05T01:45:34.682Z,14.47
2022-08-05T02:27:15.583Z,16.60
2022-08-05T02:29:59.423Z,16.90
2022-08-05T02:32:30.797Z,19.07
2022-08-05T02:35:13.726Z,21.33
2022-08-05T02:37:42.703Z,21.67
2022-08-05T02:40:16.674Z,23.43
2022-08-05T02:42:44.769Z,23.07
2022-08-05T02:45:20.540Z,23.70
2022-08-05T02:48:06.364Z,24.10
2022-08-05T02:50:44.085Z,20.00
2022-08-05T02:53:12.017Z,19.90
2022-08-05T02:55:54.766Z,21.77
2022-08-05T02:58:27.271Z,20.60
2022-08-05T03:00:58.994Z,22.33
2022-08-05T03:03:26.318Z,20.53
2022-08-05T03:06:53.575Z,20.77
2022-08-05T03:08:42.468Z,18.17
2022-08-05T03:11:56.954Z,21.70
2022-08-05T03:14:13.616Z,22.53
2022-08-05T03:16:40.568Z,24.17
2022-08-05T03:19:17.342Z,25.20
2022-08-05T03:21:54.790Z,24.70
2022-08-05T03:24:29.269Z,26.00
2022-08-05T03:26:57.431Z,25.33
2022-08-05T03:29:24.201Z,27.87
2022-08-05T03:32:11.427Z,25.30
2022-08-05T03:34:38.530Z,27.93
2022-08-05T03:37:06.764Z,27.90
2022-08-05T03:39:38.116Z,29.70
2022-08-05T03:42:14.060Z,29.60
2022-08-05T03:44:42.731Z,30.03
2022-08-05T03:47:09.400Z,32.47
2022-08-05T03:49:51.911Z,28.80
2022-08-05T03:52:38.977Z,31.10
2022-08-05T03:56:01.239Z,29.17
2022-08-05T03:58:08.164Z,30.57
2022-08-05T04:00:37.364Z,30.47
2022-08-05T04:03:26.700Z,31.27
2022-08-05T04:05:56.684Z,36.47
2022-08-05T04:08:34.790Z,35.63
2022-08-05T04:11:04.123Z,34.40
2022-08-05T04:13:50.930Z,38.10
2022-08-05T04:16:24.985Z,39.30
2022-08-05T04:19:00.120Z,39.90
2022-08-05T04:22:08.641Z,39.57
2022-08-05T04:24:19.215Z,40.53
2022-08-05T04:26:49.538Z,42.40
2022-08-05T04:29:17.076Z,47.70
2022-08-05T04:31:43.832Z,45.87
2022-08-05T04:34:19.956Z,42.90
2022-08-05T04:36:57.780Z,45.60
2022-08-05T04:39:24.545Z,43.97
2022-08-05T04:41:54.555Z,45.33
2022-08-05T04:44:29.559Z,50.53
2022-08-05T04:47:20.115Z,45.57
2022-08-05T04:50:01.727Z,43.13
2022-08-05T04:52:34.105Z,45.57
2022-08-05T04:55:13.982Z,47.43
2022-08-05T04:57:48.047Z,46.47
2022-08-05T05:00:18.389Z,44.40
2022-08-05T05:02:50.123Z,47.70
2022-08-05T05:05:26.250Z,45.10
2022-08-05T05:08:00.823Z,46.70
2022-08-05T05:10:29.723Z,46.60
2022-08-05T05:12:56.663Z,45.83
2022-08-05T05:15:56.390Z,45.93
2022-08-05T05:18:13.919Z,44.43
2022-08-05T05:20:42.353Z,47.57
2022-08-05T05:23:19.507Z,44.93
2022-08-05T05:25:47.882Z,44.77
2022-08-05T05:28:14.660Z,45.47
2022-08-05T05:30:42.324Z,45.07
2022-08-05T05:33:17.310Z,47.80
2022-08-05T05:35:48.027Z,46.73
2022-08-05T05:38:22.768Z,45.13
2022-08-05T05:40:54.304Z,44.77
2022-08-05T05:43:54.290Z,42.77
2022-08-05T05:46:17.744Z,46.73
2022-08-05T05:48:49.793Z,44.77
2022-08-05T05:51:24.301Z,42.90
2022-08-05T05:53:58.955Z,43.10
2022-08-05T05:56:33.161Z,44.80
2022-08-05T05:59:03.467Z,43.37
2022-08-05T06:01:37.177Z,46.90
2022-08-05T06:04:05.793Z,41.37
2022-08-05T06:06:34.888Z,43.73
2022-08-05T06:09:03.836Z,43.27
2022-08-05T06:11:31.169Z,43.97
2022-08-05T06:13:58.080Z,45.90
2022-08-05T06:16:36.681Z,43.67
2022-08-05T06:19:05.841Z,39.20
2022-08-05T06:21:37.603Z,39.10
2022-08-05T06:24:06.336Z,40.90
2022-08-05T06:26:38.266Z,36.90
2022-08-05T06:29:23.673Z,35.87
2022-08-05T06:31:52.080Z,36.27
2022-08-05T06:34:20.067Z,35.63
2022-08-05T06:36:57.004Z,34.73
2022-08-05T06:39:27.250Z,29.63
2022-08-05T06:41:58.680Z,28.47
2022-08-05T06:44:30.338Z,27.00
2022-08-05T06:46:57.508Z,27.20
2022-08-05T06:50:00.177Z,24.60
2022-08-05T06:52:36.718Z,22.30
2022-08-05T06:54:57.937Z,23.50
2022-08-05T06:58:02.881Z,23.73
2022-08-05T07:00:11.494Z,25.30
2022-08-05T07:02:46.356Z,26.10
2022-08-05T07:05:18.714Z,26.13
2022-08-05T07:07:48.932Z,23.77
2022-08-05T07:10:16.245Z,24.37
2022-08-05T07:13:02.302Z,24.90
2022-08-05T07:16:00.966Z,25.07
2022-08-05T07:18:31.823Z,22.70
2022-08-05T07:21:04.691Z,23.40
2022-08-05T07:23:32.581Z,21.03
2022-08-05T07:25:59.612Z,23.50
2022-08-05T07:28:26.789Z,24.20
2022-08-05T07:30:55.095Z,20.40
2022-08-05T07:33:36.728Z,22.10
2022-08-05T07:36:21.270Z,20.80
2022-08-05T07:38:48.889Z,21.33
2022-08-05T07:42:14.570Z,20.60
2022-08-05T07:44:05.527Z,20.80
2022-08-05T07:46:41.538Z,21.40
2022-08-05T07:49:15.018Z,23.07
2022-08-05T07:51:48.964Z,23.27
2022-08-05T07:54:30.405Z,25.00
2022-08-05T07:57:17.566Z,20.10
2022-08-05T07:59:48.777Z,19.87
2022-08-05T08:02:17.611Z,19.70
2022-08-05T08:04:49.206Z,17.73
2022-08-05T08:07:18.287Z,18.17
2022-08-05T08:09:49.926Z,16.40
2022-08-05T08:12:33.475Z,16.63
2022-08-05T08:15:05.121Z,14.00
2022-08-05T08:17:36.571Z,15.17
2022-08-05T08:20:42.613Z,14.10
2022-08-05T08:22:57.207Z,12.80
2022-08-05T08:25:27.205Z,13.13
2022-08-05T08:28:18.532Z,12.00
2022-08-05T08:30:57.686Z,12.60
2022-08-05T08:33:24.619Z,10.20
2022-08-05T08:36:12.789Z,12.13
2022-08-05T08:38:41.441Z,10.60
2022-08-05T08:41:14.042Z,9.90
2022-08-05T08:45:19.056Z,9.90
2022-08-05T08:46:31.171Z,10.90
2022-08-05T08:50:03.782Z,11.17
2022-08-05T09:35:26.533Z,8.60
2022-08-05T09:38:12.772Z,6.97
2022-08-05T09:40:44.594Z,7.03
2022-08-05T09:44:06.836Z,7.30
2022-08-05T09:46:35.282Z,6.73
2022-08-05T09:49:23.721Z,7.77
2022-08-05T09:52:45.091Z,5.13
2022-08-05T09:59:58.601Z,6.53
2022-08-05T10:02:34.483Z,6.77
2022-08-05T10:08:37.760Z,5.60
2022-08-05T10:11:04.599Z,5.30
2022-08-05T10:17:37.827Z,3.73
2022-08-05T10:36:42.797Z,3.90
2022-08-05T10:40:03.540Z,4.33
2022-08-05T10:42:33.600Z,4.80
2022-08-05T10:45:21.499Z,4.87
2022-08-05T10:48:29.765Z,4.30
2022-08-05T10:50:57.842Z,5.40
2022-08-05T10:53:38.999Z,4.83
2022-08-05T10:56:26.449Z,4.63
2022-08-05T10:59:12.137Z,5.53
2022-08-05T11:01:55.233Z,5.27
2022-08-05T11:09:45.170Z,4.30
2022-08-05T11:50:05.425Z,3.40
2022-08-05T11:52:46.104Z,3.53
2022-08-05T11:55:44.165Z,4.47
2022-08-05T12:01:11.923Z,3.37
2022-08-05T12:04:05.338Z,3.70
2022-08-05T12:06:35.744Z,4.00
2022-08-05T12:09:04.589Z,4.80
2022-08-05T12:11:40.096Z,4.37
2022-08-05T12:14:11.100Z,4.10
2022-08-05T12:16:39.650Z,4.47
2022-08-05T12:19:08.456Z,4.70
2022-08-05T12:21:42.362Z,4.10
2022-08-05T12:24:19.474Z,4.63
2022-08-05T12:30:16.614Z,3.73
2022-08-05T12:32:51.329Z,3.60
2022-08-05T12:35:21.852Z,4.67
2022-08-05T12:38:07.259Z,3.70
2022-08-05T12:40:37.970Z,3.70
2022-08-05T12:43:10.450Z,3.57
2022-08-05T12:45:48.215Z,3.10
2022-08-05T12:48:32.660Z,2.90
2022-08-05T12:56:04.934Z,3.30
2022-08-05T13:02:57.829Z,2.80
2022-08-05T13:05:26.037Z,2.80
2022-08-05T13:11:17.220Z,1.90
2022-08-05T13:14:04.667Z,1.60
2022-08-05T13:16:44.295Z,1.60
2022-08-05T13:19:13.211Z,1.30
2022-08-05T13:21:52.423Z,1.33
2022-08-05T13:24:36.182Z,2.23
2022-08-05T13:27:37.471Z,1.90
2022-08-05T13:30:36.149Z,1.80
2022-08-05T13:33:01.262Z,2.13
2022-08-05T13:35:31.350Z,1.80
2022-08-05T13:38:20.038Z,2.57
2022-08-05T13:40:57.511Z,1.80
2022-08-05T13:43:24.635Z,1.80
2022-08-05T13:54:21.047Z,2.50
2022-08-05T14:00:32.984Z,3.00
2022-08-05T14:04:08.985Z,2.10
2022-08-05T14:08:00.645Z,2.50
2022-08-05T14:10:30.957Z,2.63
2022-08-05T14:18:01.987Z,3.00
2022-08-05T14:22:10.416Z,1.67
2022-08-05T14:35:57.504Z,2.63
2022-08-05T14:46:54.280Z,1.60
2022-08-05T14:49:59.580Z,1.70
2022-08-05T14:56:33.915Z,1.03
2022-08-05T14:59:35.751Z,1.00
2022-08-05T15:02:58.209Z,1.43
2022-08-05T15:06:06.859Z,1.20
2022-08-05T15:08:58.090Z,1.07
2022-08-05T15:11:08.564Z,1.10
2022-08-05T15:14:04.455Z,1.23
2022-08-05T15:16:31.622Z,1.07
2022-08-05T15:18:58.427Z,1.07
2022-08-05T15:21:32.204Z,1.00
2022-08-05T15:24:11.488Z,1.10
2022-08-05T15:26:38.822Z,0.80
2022-08-05T15:29:41.861Z,0.83
2022-08-05T15:32:16.832Z,1.13
2022-08-05T15:34:44.685Z,0.80
2022-08-05T15:38:31.961Z,0.97
2022-08-05T15:40:58.221Z,0.90
2022-08-05T15:50:55.300Z,1.37
2022-08-05T16:01:04.421Z,1.13
2022-08-05T16:03:55.705Z,1.10
2022-08-05T16:06:38.629Z,1.27
2022-08-05T16:09:22.080Z,1.10
2022-08-05T16:12:11.423Z,1.17
2022-08-05T16:15:48.360Z,1.53
2022-08-05T16:18:29.245Z,1.10
2022-08-05T16:29:50.091Z,1.20
2022-08-05T16:32:29.112Z,1.20
2022-08-05T16:35:05.916Z,1.70
2022-08-05T16:38:02.276Z,1.73
2022-08-05T16:40:35.397Z,1.27
2022-08-05T16:43:03.261Z,1.10
2022-08-05T16:46:03.478Z,1.07
2022-08-05T16:48:35.111Z,0.80
2022-08-05T16:51:03.922Z,0.80
2022-08-05T16:54:03.885Z,1.73
2022-08-05T16:56:29.645Z,0.87
2022-08-05T16:58:57.591Z,0.70
2022-08-05T17:01:24.807Z,0.80
2022-08-05T17:04:09.681Z,1.10
2022-08-05T17:06:37.188Z,1.47
2022-08-05T17:09:12.213Z,1.20
2022-08-05T17:11:48.298Z,1.20
2022-08-05T17:14:22.294Z,0.87
2022-08-05T17:17:02.599Z,0.93
2022-08-05T17:19:29.612Z,0.90
2022-08-05T17:44:15.034Z,1.40
2022-08-05T17:56:38.403Z,1.10
2022-08-05T17:59:08.383Z,1.37
2022-08-05T18:02:10.049Z,1.00
2022-08-05T18:04:53.234Z,2.47
2022-08-05T18:07:41.724Z,1.17
2022-08-05T18:10:11.040Z,1.63
2022-08-05T18:12:41.449Z,1.03
2022-08-05T18:15:09.026Z,1.63
2022-08-05T18:21:22.665Z,1.13
2022-08-05T18:43:16.447Z,0.70
2022-08-05T18:54:28.566Z,1.00
2022-08-05T18:57:09.611Z,1.57
2022-08-05T19:00:02.205Z,0.90
2022-08-05T19:02:30.808Z,0.80
2022-08-05T19:06:13.250Z,1.00
2022-08-05T19:08:30.759Z,1.00
2022-08-05T19:12:00.248Z,1.00
2022-08-05T19:14:37.754Z,0.80
2022-08-05T19:17:13.040Z,1.00
2022-08-05T19:20:14.626Z,1.77
2022-08-05T19:23:22.369Z,0.90
2022-08-05T19:34:20.580Z,1.20
2022-08-05T19:36:50.308Z,0.90
2022-08-05T19:39:17.405Z,1.13
2022-08-05T19:42:05.823Z,0.97
2022-08-05T19:44:44.623Z,0.90
2022-08-05T19:47:18.449Z,1.57
2022-08-05T19:58:19.499Z,1.00
2022-08-05T20:00:31.669Z,1.10
2022-08-05T20:03:09.484Z,1.57
2022-08-05T20:05:51.240Z,1.00
2022-08-05T20:12:08.805Z,1.30
2022-08-05T20:14:38.105Z,1.13
2022-08-05T20:17:06.511Z,1.13
2022-08-05T20:19:36.265Z,1.87
2022-08-05T20:22:10.078Z,1.30
2022-08-05T20:24:38.471Z,1.20
2022-08-05T20:27:11.252Z,1.47
2022-08-05T20:29:39.597Z,1.00
2022-08-05T20:32:07.829Z,1.30
2022-08-05T20:34:37.330Z,1.17
2022-08-05T20:37:17.744Z,2.27
2022-08-05T20:39:54.979Z,1.60
2022-08-05T20:42:25.443Z,1.20
2022-08-05T20:44:57.557Z,1.40
2022-08-05T20:47:32.108Z,1.63
2022-08-05T20:49:59.988Z,1.83
2022-08-05T20:52:32.989Z,1.50
2022-08-05T20:55:56.899Z,2.07
2022-08-05T20:57:52.581Z,1.60
2022-08-05T21:00:49.851Z,1.47
2022-08-05T21:03:16.676Z,1.80
2022-08-05T21:05:54.449Z,1.67
2022-08-05T21:08:35.942Z,1.47
2022-08-05T21:11:15.139Z,1.60
2022-08-05T21:13:59.724Z,2.23
2022-08-05T21:16:29.738Z,1.83
2022-08-05T21:18:59.849Z,1.83
2022-08-05T21:21:44.194Z,1.53
2022-08-05T21:24:21.343Z,2.97
2022-08-05T21:26:56.108Z,1.83
2022-08-05T21:29:31.703Z,1.70
2022-08-05T21:32:00.082Z,3.70
2022-08-05T21:34:28.177Z,1.73
2022-08-05T21:36:55.766Z,1.63
2022-08-05T21:39:28.214Z,1.77
2022-08-05T21:42:01.626Z,1.53
2022-08-05T21:44:30.062Z,1.93
2022-08-05T21:46:58.076Z,1.47
2022-08-05T21:49:48.108Z,1.80
2022-08-05T21:52:26.989Z,1.53
2022-08-05T21:54:57.806Z,2.10
2022-08-05T21:57:33.800Z,1.93
2022-08-05T22:00:05.976Z,1.70
2022-08-05T22:02:41.702Z,1.80
2022-08-05T22:05:10.243Z,2.00
2022-08-05T22:07:40.081Z,2.00
2022-08-05T22:10:37.712Z,1.73
2022-08-05T22:14:32.517Z,2.20
2022-08-05T22:16:00.568Z,1.80
2022-08-05T22:18:34.649Z,1.57
2022-08-05T22:21:04.086Z,1.93
2022-08-05T22:24:03.007Z,2.00
2022-08-05T22:26:54.102Z,2.73
2022-08-05T22:29:26.619Z,2.23
2022-08-05T22:31:59.373Z,2.37
2022-08-05T22:34:30.063Z,2.10
2022-08-05T22:36:58.414Z,2.70
2022-08-05T22:39:30.970Z,2.30
2022-08-05T22:42:11.549Z,2.80
2022-08-05T22:44:56.327Z,2.13
2022-08-05T22:47:29.613Z,2.73
2022-08-05T22:50:21.720Z,2.40
2022-08-05T22:52:44.956Z,2.77
2022-08-05T22:55:18.886Z,2.97
2022-08-05T22:57:49.026Z,2.10
2022-08-05T23:00:17.850Z,3.07
2022-08-05T23:02:48.141Z,2.30
2022-08-05T23:05:15.451Z,3.40
2022-08-05T23:07:45.332Z,2.23
2022-08-05T23:10:16.350Z,2.77
2022-08-05T23:12:47.411Z,2.70
2022-08-05T23:15:18.195Z,2.23
2022-08-05T23:18:01.601Z,2.60
2022-08-05T23:20:31.462Z,2.63
2022-08-05T23:22:59.111Z,2.50
2022-08-05T23:25:51.364Z,2.00
2022-08-05T23:28:13.126Z,2.30
2022-08-05T23:30:43.538Z,2.10
2022-08-05T23:33:22.404Z,4.00
2022-08-05T23:35:56.171Z,2.57
2022-08-05T23:38:24.217Z,2.20
2022-08-05T23:40:52.882Z,1.97
2022-08-05T23:43:25.031Z,2.50
2022-08-05T23:46:20.298Z,2.27
2022-08-05T23:49:00.919Z,2.63
2022-08-05T23:51:53.291Z,2.17
2022-08-05T23:54:26.065Z,2.17
2022-08-05T23:56:53.743Z,3.33
2022-08-05T23:59:20.377Z,2.10
